Terminal Aerodrome Forecast
Issued by NWS

Home | Current Version | Previous Version | Graphics & Text | Print | Product List | Glossary On
Versions: 1 2 3 4 5 6 7 8 9 10 11 12 13 14 15
000
FTUS43 KPAH 261333 AAA
TAFCGI
TAF AMD
KCGI 261333Z 2614/2712 19010KT P6SM FEW040 SCT180
      TEMPO 2614/2616 6SM -SHRA BKN070
     FM261600 18012G19KT P6SM BKN180
     FM261700 20015G23KT P6SM SCT025 BKN040
     FM262100 21011KT P6SM OVC025
     FM270100 20009KT P6SM OVC015
     FM270600 21005KT 6SM BR OVC009=

USA.gov is the U.S. government's official web portal to all federal, state and local government web resources and services.